Time;durP1;ratioP1;P1;durP2;ratioP2;P2;SDS_P1;SDS_P2;PMS_P1;PMS_P2;Temp;Humidity;BMP_temperature;BMP_pressure;BME280_temperature;BME280_humidity;BME280_pressure;Samples;Min_cycle;Max_cycle;Signal;HPM_P1;HPM_P2
2021/01/24 00:00:32;;;;;;;23.73;15.25;;;2.70;99.90;;;2.37;86.41;99842.84;4117954;28;20073;-84
2021/01/24 00:02:32;;;;;;;23.55;13.57;;;2.70;99.90;;;2.24;86.54;99819.63;4102027;28;20042;-84
2021/01/24 00:04:33;;;;;;;22.60;14.35;;;2.70;99.90;;;2.32;86.58;99828.56;4110445;28;20022;-79
2021/01/24 00:06:34;;;;;;;24.25;14.27;;;2.70;99.90;;;2.42;86.31;99838.09;4133561;28;20038;-78
2021/01/24 00:08:35;;;;;;;25.00;14.55;;;2.70;99.90;;;2.34;85.98;99837.91;4113399;28;20038;-79
2021/01/24 00:10:36;;;;;;;25.83;14.18;;;2.70;99.90;;;2.28;86.04;99837.56;4086535;29;20095;-79
2021/01/24 00:12:37;;;;;;;28.92;15.88;;;2.70;99.90;;;2.10;87.40;99825.13;4102474;28;20090;-79
2021/01/24 00:14:38;;;;;;;25.55;17.45;;;2.60;99.90;;;2.13;87.26;99829.25;4102381;28;20053;-79
2021/01/24 00:16:39;;;;;;;28.67;17.23;;;2.70;99.90;;;2.24;86.41;99842.19;4103694;28;20033;-79
2021/01/24 00:18:40;;;;;;;23.98;15.50;;;2.60;99.90;;;2.15;86.48;99835.97;4086411;29;20036;-79
2021/01/24 00:20:41;;;;;;;22.40;15.05;;;2.60;99.90;;;2.22;85.66;99839.75;4102362;28;20079;-79
2021/01/24 00:22:41;;;;;;;21.85;14.90;;;2.60;99.90;;;2.28;85.10;99837.56;4102478;28;20034;-78
2021/01/24 00:24:42;;;;;;;22.30;14.75;;;2.60;99.90;;;2.22;84.75;99829.34;4121108;28;20022;-79
2021/01/24 00:26:43;;;;;;;25.55;15.15;;;2.60;99.90;;;2.15;85.16;99833.38;4128139;28;20082;-78
2021/01/24 00:28:44;;;;;;;23.40;14.35;;;2.50;99.90;;;2.19;85.24;99828.75;4111771;28;20035;-79
2021/01/24 00:30:45;;;;;;;22.80;13.88;;;2.60;99.90;;;2.08;85.82;99832.25;4098665;29;20038;-79
2021/01/24 00:32:46;;;;;;;21.63;13.07;;;2.50;99.90;;;2.02;85.71;99827.53;4119185;28;20035;-79
2021/01/24 00:34:47;;;;;;;23.35;14.38;;;2.50;99.90;;;2.02;86.46;99837.94;4119509;28;20023;-79
2021/01/24 00:36:48;;;;;;;20.75;13.50;;;2.50;99.90;;;1.94;86.45;99836.91;4118550;28;20030;-79
2021/01/24 00:38:49;;;;;;;15.80;12.20;;;2.40;99.90;;;1.71;88.02;99828.31;4137310;28;20057;-79
2021/01/24 00:40:50;;;;;;;18.23;11.77;;;2.30;99.90;;;1.84;87.78;99829.00;4107087;28;20506;-79
2021/01/24 00:42:51;;;;;;;18.65;12.57;;;2.40;99.90;;;1.94;86.93;99829.91;4105351;28;20402;-79
2021/01/24 00:44:51;;;;;;;17.65;12.45;;;2.30;99.90;;;1.88;86.71;99821.78;4121413;28;20019;-79
2021/01/24 00:46:52;;;;;;;16.70;12.35;;;2.30;99.90;;;1.90;87.08;99836.31;4106429;28;20027;-79
2021/01/24 00:48:53;;;;;;;17.75;11.80;;;2.30;99.90;;;1.84;87.23;99836.81;4105237;28;20027;-79
2021/01/24 00:50:55;;;;;;;16.55;10.95;;;2.30;99.90;;;1.76;87.47;99830.56;4121329;28;20425;-79
2021/01/24 00:52:56;;;;;;;17.65;12.32;;;2.30;99.90;;;1.82;87.97;99840.50;4133359;28;20030;-79
2021/01/24 00:54:57;;;;;;;19.60;11.90;;;2.30;99.90;;;1.85;88.34;99842.84;4120907;28;20055;-79
2021/01/24 00:56:58;;;;;;;18.85;12.63;;;2.30;99.90;;;1.79;88.09;99825.97;4137145;28;20030;-79
2021/01/24 00:58:59;;;;;;;13.65;10.82;;;2.30;99.90;;;1.81;88.82;99833.63;4117641;28;20042;-79
2021/01/24 01:01:00;;;;;;;16.73;11.80;;;2.30;99.90;;;1.67;89.41;99829.53;4089119;29;20031;-79
2021/01/24 01:03:01;;;;;;;17.85;12.32;;;2.40;99.90;;;1.98;88.99;99846.09;4104824;28;20505;-79
2021/01/24 01:05:02;;;;;;;15.45;11.55;;;2.30;99.90;;;1.96;89.01;99833.22;4104917;28;20059;-79
2021/01/24 01:07:03;;;;;;;15.50;12.48;;;2.40;99.90;;;2.01;88.70;99838.88;4121029;28;20490;-79
2021/01/24 01:09:04;;;;;;;13.68;10.95;;;2.40;99.90;;;2.11;88.83;99842.41;4104883;28;20034;-79
2021/01/24 01:11:05;;;;;;;13.35;10.57;;;2.40;99.90;;;1.76;88.45;99795.00;4120967;28;20039;-79
2021/01/24 01:13:06;;;;;;;14.40;11.18;;;2.40;99.90;;;2.09;87.28;99844.28;4120871;28;20074;-79
2021/01/24 01:15:08;;;;;;;12.10;10.23;;;2.30;99.90;;;2.09;87.22;99844.28;4121083;28;20079;-79
2021/01/24 01:17:09;;;;;;;15.23;10.38;;;2.50;99.90;;;2.09;87.12;99849.47;4105011;28;20023;-79
2021/01/24 01:19:10;;;;;;;15.45;10.93;;;2.40;99.90;;;2.03;86.67;99831.75;4120820;28;20031;-79
2021/01/24 01:21:11;;;;;;;14.70;11.50;;;2.50;99.90;;;1.99;87.12;99837.34;4105988;28;20050;-79
2021/01/24 01:23:12;;;;;;;16.70;11.70;;;2.40;99.90;;;1.92;87.37;99826.59;4088952;29;20028;-79
2021/01/24 01:25:13;;;;;;;15.30;11.77;;;2.40;99.90;;;1.85;88.18;99843.66;4127577;28;20070;-79
2021/01/24 01:27:14;;;;;;;15.15;11.32;;;2.40;99.90;;;2.02;87.40;99857.91;4126659;28;20411;-79
2021/01/24 01:29:15;;;;;;;16.20;11.68;;;2.40;99.90;;;2.04;86.63;99837.78;4117837;28;20038;-79
2021/01/24 01:31:16;;;;;;;13.73;9.75;;;2.40;99.90;;;1.97;86.17;99834.84;4108323;28;20405;-79
2021/01/24 01:33:17;;;;;;;13.93;10.23;;;2.30;99.90;;;1.98;86.91;99846.09;4120546;28;20027;-79
2021/01/24 01:35:18;;;;;;;15.77;11.00;;;2.40;99.90;;;1.87;87.62;99848.72;4136673;28;20045;-79
2021/01/24 01:37:19;;;;;;;16.60;10.15;;;2.40;99.90;;;1.88;88.40;99863.41;4104262;29;20406;-79
2021/01/24 01:39:20;;;;;;;15.30;10.98;;;2.30;99.90;;;1.81;88.92;99842.25;4136212;28;20527;-79
2021/01/24 01:41:21;;;;;;;16.73;10.43;;;2.30;99.90;;;1.88;88.51;99851.19;4136601;28;20057;-79
2021/01/24 01:43:22;;;;;;;12.55;9.68;;;2.30;99.90;;;1.94;87.97;99855.09;4120396;28;20410;-79
2021/01/24 01:45:23;;;;;;;14.27;9.80;;;2.40;99.90;;;2.00;87.93;99860.63;4120316;28;20027;-79
2021/01/24 01:47:26;;;;;;;14.43;10.13;;;2.40;99.90;;;2.01;87.92;99853.66;4120483;28;20061;-79
2021/01/24 01:49:27;;;;;;;10.68;7.80;;;2.40;99.90;;;2.04;87.99;99863.81;4119477;28;20054;-79
2021/01/24 01:51:28;;;;;;;16.95;9.20;;;2.40;99.90;;;2.03;88.54;99862.19;4136075;28;20445;-79
2021/01/24 01:53:29;;;;;;;14.32;8.48;;;2.40;99.90;;;1.88;89.05;99853.81;4105282;28;20038;-78
2021/01/24 01:55:30;;;;;;;13.18;8.25;;;2.50;99.90;;;2.08;88.64;99870.44;4105095;28;20102;-79
2021/01/24 01:57:33;;;;;;;14.10;8.63;;;2.50;99.90;;;2.09;88.71;99869.47;4104547;28;20059;-79
2021/01/24 01:59:33;;;;;;;13.32;8.45;;;2.50;99.90;;;1.93;88.72;99841.28;4120079;28;20033;-79
2021/01/24 02:01:59;;;;;;;14.73;8.93;;;2.50;99.90;;;2.13;89.76;99871.69;4105421;28;20475;-79
2021/01/24 02:04:26;;;;;;;9.55;7.30;;;2.50;99.90;;;2.15;89.49;99874.19;4105690;28;20392;-79
2021/01/24 02:06:37;;;;;;;10.48;7.50;;;2.50;99.90;;;2.23;89.47;99877.81;4085791;28;20050;-79
2021/01/24 02:09:00;;;;;;;13.02;8.38;;;2.60;99.90;;;2.17;89.64;99864.47;4104132;28;20091;-79
2021/01/24 02:11:16;;;;;;;11.10;7.53;;;2.60;99.90;;;2.31;88.96;99878.97;4104940;28;20035;-79
2021/01/24 02:14:10;;;;;;;11.48;8.30;;;2.70;99.90;;;2.26;89.88;99875.91;4104265;28;20055;-79
2021/01/24 02:16:14;;;;;;;10.68;8.07;;;2.70;99.90;;;2.22;89.50;99868.34;4056117;29;20123;-79
2021/01/24 02:18:16;;;;;;;10.38;7.55;;;2.70;99.90;;;2.19;89.36;99867.78;4076627;28;20566;-79
2021/01/24 02:20:46;;;;;;;10.70;7.85;;;2.70;99.90;;;2.31;89.72;99882.38;4120101;28;20120;-78
2021/01/24 02:22:51;;;;;;;10.60;7.22;;;2.70;99.90;;;2.33;88.65;99867.47;4117695;28;20065;-79
2021/01/24 02:25:01;;;;;;;12.30;8.30;;;2.70;99.90;;;2.29;88.75;99863.50;4107999;28;20078;-79
2021/01/24 02:27:42;;;;;;;10.68;7.07;;;2.70;99.90;;;2.36;88.76;99858.63;4104642;28;20510;-79
2021/01/24 02:30:28;;;;;;;13.02;7.15;;;2.70;99.90;;;2.35;87.51;99857.78;4116183;28;20042;-79
2021/01/24 02:32:30;;;;;;;;;;;2.80;99.90;;;2.15;88.24;99854.19;4116836;28;20039;-79
2021/01/24 02:34:37;;;;;;;9.63;7.32;;;2.70;99.90;;;2.22;89.52;99870.13;4119858;28;19909;-79
2021/01/24 02:36:40;;;;;;;11.50;8.43;;;2.70;99.90;;;2.30;89.66;99857.31;4119628;28;20027;-79
2021/01/24 02:38:42;;;;;;;12.15;9.00;;;2.70;99.90;;;2.31;89.16;99855.53;4135475;28;20031;-79
2021/01/24 02:40:44;;;;;;;14.85;9.77;;;2.70;99.90;;;2.51;88.46;99870.38;4119675;28;20061;-79
2021/01/24 02:42:48;;;;;;;12.52;8.77;;;2.80;99.90;;;2.54;87.33;99864.91;4119484;28;20038;-79
2021/01/24 02:44:50;;;;;;;11.70;9.30;;;2.80;99.90;;;2.44;87.64;99864.00;4111206;28;20430;-79
2021/01/24 02:46:51;;;;;;;16.27;7.63;;;2.80;99.90;;;2.44;87.42;99858.81;4104784;28;20155;-79
2021/01/24 02:48:53;;;;;;;12.27;8.70;;;2.80;99.90;;;2.29;87.19;99840.06;4103537;28;20501;-79
2021/01/24 02:50:56;;;;;;;10.77;8.52;;;2.80;99.90;;;2.23;87.55;99846.59;4087716;29;20556;-79
2021/01/24 02:52:59;;;;;;;9.07;7.95;;;2.80;99.90;;;2.22;88.31;99865.75;4116845;28;20530;-79
2021/01/24 02:55:01;;;;;;;11.30;8.55;;;2.70;99.90;;;2.00;88.30;99871.03;4107398;28;20415;-79
2021/01/24 02:57:03;;;;;;;11.63;9.30;;;2.60;99.90;;;2.02;87.66;99845.75;4118167;28;20122;-78
2021/01/24 02:59:05;;;;;;;12.80;8.82;;;2.60;99.90;;;2.09;88.29;99851.28;4135348;28;20031;-79
2021/01/24 03:01:06;;;;;;;13.18;9.68;;;2.50;99.90;;;2.16;87.23;99857.63;4119247;28;20041;-79
2021/01/24 03:03:06;;;;;;;12.80;8.57;;;2.60;99.90;;;2.28;87.27;99845.38;4135412;28;20034;-79
2021/01/24 03:05:08;;;;;;;13.20;8.60;;;2.70;99.90;;;2.17;87.46;99839.28;4088642;28;20578;-79
2021/01/24 03:07:09;;;;;;;11.57;8.07;;;2.60;99.90;;;2.24;86.26;99837.00;4119137;28;20038;-79
2021/01/24 03:09:10;;;;;;;11.90;9.25;;;2.70;99.90;;;2.27;86.14;99841.16;4111198;28;20031;-79
2021/01/24 03:11:17;;;;;;;10.57;8.65;;;2.70;99.90;;;2.17;87.01;99841.91;4114411;28;20030;-79
2021/01/24 03:13:35;;;;;;;10.95;8.73;;;2.70;99.90;;;2.10;87.52;99825.13;4135132;28;20034;-79
2021/01/24 03:15:37;;;;;;;11.80;9.00;;;2.70;99.90;;;2.28;87.04;99842.78;4119034;28;20062;-79
2021/01/24 03:17:38;;;;;;;15.63;8.48;;;2.70;99.90;;;2.14;87.23;99829.13;4135096;28;20026;-79
2021/01/24 03:19:41;;;;;;;11.85;9.15;;;2.70;99.90;;;2.17;87.42;99835.88;4104444;28;20032;-79
2021/01/24 03:21:44;;;;;;;11.88;8.60;;;2.60;99.90;;;2.06;87.21;99834.13;4119159;28;20090;-79
2021/01/24 03:23:45;;;;;;;12.10;8.43;;;2.70;99.90;;;2.18;87.00;99835.72;4104123;28;20066;-79
2021/01/24 03:25:48;;;;;;;11.98;9.20;;;2.60;99.90;;;2.19;86.45;99842.59;4114646;28;20023;-79
2021/01/24 03:27:49;;;;;;;11.23;8.43;;;2.70;99.90;;;2.20;86.38;99836.44;4134877;28;20019;-79
2021/01/24 03:29:50;;;;;;;13.10;9.05;;;2.70;99.90;;;2.35;86.19;99854.34;4113880;28;20095;-78
2021/01/24 03:31:50;;;;;;;13.18;9.73;;;2.60;99.90;;;2.35;85.49;99851.75;4112689;28;20019;-78
2021/01/24 03:33:53;;;;;;;10.32;8.30;;;2.70;99.90;;;2.20;86.27;99846.84;4120162;28;20034;-78
2021/01/24 03:35:54;;;;;;;11.73;8.85;;;2.70;99.90;;;2.16;87.30;99861.03;4118682;28;20038;-79
2021/01/24 03:37:55;;;;;;;11.60;9.05;;;2.70;99.90;;;2.04;87.67;99843.81;4134893;28;20026;-79
2021/01/24 03:39:56;;;;;;;15.23;9.20;;;2.70;99.90;;;2.10;87.57;99863.31;4109879;28;20042;-79
2021/01/24 03:41:57;;;;;;;12.52;9.05;;;2.70;99.90;;;2.12;88.09;99858.84;4130767;28;20030;-79
2021/01/24 03:43:57;;;;;;;12.63;8.10;;;2.60;99.90;;;2.21;87.45;99848.47;4118642;28;20035;-79
2021/01/24 03:45:58;;;;;;;11.70;8.55;;;2.70;99.90;;;2.24;87.06;99857.81;4134803;28;20501;-78
2021/01/24 03:47:59;;;;;;;11.57;9.05;;;2.70;99.90;;;2.11;87.40;99851.97;4111748;28;20024;-79
2021/01/24 03:50:00;;;;;;;12.23;9.45;;;2.70;99.90;;;2.16;86.13;99853.25;4102668;28;20066;-78
2021/01/24 03:52:01;;;;;;;14.13;9.10;;;2.70;99.90;;;2.16;86.68;99852.41;4123251;28;20023;-78
2021/01/24 03:54:02;;;;;;;12.02;8.18;;;2.70;99.90;;;1.99;86.67;99848.59;4118357;28;20046;-79
2021/01/24 03:56:03;;;;;;;10.10;8.32;;;2.60;99.90;;;2.07;86.96;99853.16;4118591;28;20018;-78
2021/01/24 03:58:04;;;;;;;9.57;7.70;;;2.60;99.90;;;2.09;86.23;99849.47;4091443;29;20037;-79
2021/01/24 04:00:06;;;;;;;14.90;9.50;;;2.60;99.90;;;2.05;86.21;99850.69;4118373;28;20526;-78
2021/01/24 04:02:07;;;;;;;11.40;8.15;;;2.70;99.90;;;2.06;86.96;99857.53;4118824;28;20026;-78
2021/01/24 04:04:07;;;;;;;11.30;7.88;;;2.60;99.90;;;2.10;86.06;99856.34;4102784;28;20057;-78
2021/01/24 04:06:09;;;;;;;9.65;8.50;;;2.70;99.90;;;2.16;86.63;99857.63;4102694;28;20031;-79
2021/01/24 04:08:10;;;;;;;10.70;8.68;;;2.70;99.90;;;2.34;86.12;99865.69;4118557;28;20031;-78
2021/01/24 04:10:12;;;;;;;13.18;10.00;;;2.70;99.90;;;2.28;86.28;99861.00;4102530;28;20063;-79
2021/01/24 04:12:13;;;;;;;12.55;8.55;;;2.70;99.90;;;2.24;86.63;99874.25;4118138;28;20038;-78
2021/01/24 04:14:14;;;;;;;13.48;9.48;;;2.80;99.90;;;2.19;87.74;99854.75;4103822;28;20114;-78
2021/01/24 04:16:15;;;;;;;13.02;8.75;;;2.70;99.90;;;2.24;88.18;99863.84;4102733;28;20406;-78
2021/01/24 04:18:15;;;;;;;12.63;8.65;;;2.80;99.90;;;2.25;88.50;99854.25;4102722;28;20039;-78
2021/01/24 04:20:16;;;;;;;10.93;9.02;;;2.80;99.90;;;2.20;88.17;99852.06;4102607;28;20038;-79
2021/01/24 04:22:17;;;;;;;11.98;8.90;;;2.80;99.90;;;2.27;87.64;99861.97;4118451;28;20114;-79
2021/01/24 04:24:18;;;;;;;11.32;9.82;;;2.80;99.90;;;2.30;87.78;99865.13;4103372;28;20023;-80
2021/01/24 04:26:19;;;;;;;13.43;8.48;;;2.80;99.90;;;2.37;87.64;99855.88;4118697;28;20023;-79
2021/01/24 04:28:20;;;;;;;11.38;8.63;;;2.80;99.90;;;2.22;87.41;99833.69;4112279;28;20036;-80
2021/01/24 04:30:21;;;;;;;13.88;8.30;;;2.80;99.90;;;2.32;87.60;99852.00;4113193;28;20033;-79
2021/01/24 04:32:22;;;;;;;10.27;8.55;;;2.80;99.90;;;2.27;87.11;99844.56;4134446;28;20049;-80
2021/01/24 04:34:23;;;;;;;16.35;10.85;;;2.70;99.90;;;2.26;87.51;99839.50;4118491;28;20062;-80
2021/01/24 04:36:24;;;;;;;10.18;7.93;;;2.70;99.90;;;2.06;87.63;99808.09;4118510;28;20113;-79
2021/01/24 04:38:27;;;;;;;10.75;9.48;;;2.70;99.90;;;2.13;88.44;99814.47;4134231;28;20086;-79
2021/01/24 04:40:28;;;;;;;16.73;9.45;;;2.70;99.90;;;2.13;89.03;99819.69;4089364;28;20019;-80
2021/01/24 04:42:29;;;;;;;12.60;8.32;;;2.50;99.90;;;2.26;89.11;99829.91;4118467;28;20042;-80
2021/01/24 04:44:30;;;;;;;13.25;8.52;;;2.60;99.90;;;2.38;89.25;99825.47;4108557;28;20031;-79
2021/01/24 04:46:35;;;;;;;10.95;8.75;;;2.70;99.90;;;2.43;89.17;99812.91;4127800;28;20117;-78
2021/01/24 04:48:36;;;;;;;10.50;8.15;;;2.80;99.90;;;2.60;88.53;99822.72;4105375;28;20111;-79
2021/01/24 04:50:38;;;;;;;13.65;8.95;;;2.90;99.90;;;2.60;88.28;99823.56;4102642;28;20035;-79
2021/01/24 04:52:39;;;;;;;11.93;9.45;;;3.00;99.90;;;2.32;89.57;99800.78;4128180;28;20038;-78
2021/01/24 04:54:43;;;;;;;15.02;10.07;;;2.90;99.90;;;2.42;89.92;99812.06;4117729;28;20589;-79
2021/01/24 04:56:44;;;;;;;14.63;10.15;;;2.90;99.90;;;2.47;89.96;99814.31;4105225;28;20406;-79
2021/01/24 04:58:45;;;;;;;13.95;10.30;;;3.00;99.90;;;2.50;88.90;99794.06;4086300;29;20108;-79
2021/01/24 05:00:46;;;;;;;12.15;9.00;;;3.00;99.90;;;2.71;89.54;99830.50;4118041;28;20041;-79
2021/01/24 05:02:47;;;;;;;12.55;10.13;;;3.10;99.90;;;2.55;90.67;99820.53;4111856;28;20402;-79
2021/01/24 05:04:50;;;;;;;13.80;9.05;;;3.20;99.90;;;2.56;90.93;99809.16;4115010;28;20099;-79
2021/01/24 05:06:50;;;;;;;11.25;9.07;;;3.30;99.90;;;2.70;90.18;99806.22;4118056;28;20027;-79
2021/01/24 05:08:51;;;;;;;12.07;8.88;;;3.30;99.90;;;2.67;90.65;99793.47;4117928;28;20398;-79
2021/01/24 05:10:55;;;;;;;15.93;8.35;;;3.40;99.90;;;2.98;89.96;99802.13;4118107;28;20066;-79
2021/01/24 05:12:57;;;;;;;9.82;7.85;;;3.50;99.90;;;3.00;91.03;99817.59;4106370;28;20028;-79
2021/01/24 05:14:58;;;;;;;10.00;7.75;;;3.60;99.90;;;3.07;90.58;99797.91;4102316;28;20067;-79
2021/01/24 05:16:59;;;;;;;9.05;7.57;;;3.70;99.90;;;3.07;90.80;99806.53;4102208;28;20091;-79
2021/01/24 05:19:01;;;;;;;7.95;6.82;;;3.80;99.90;;;2.98;91.43;99780.44;4102032;28;20114;-80
2021/01/24 05:21:04;;;;;;;10.57;7.13;;;3.80;99.90;;;3.19;90.65;99802.88;4101905;28;20034;-80
2021/01/24 05:23:08;;;;;;;9.60;6.53;;;3.90;99.90;;;3.17;90.76;99791.75;4106839;28;20042;-79
2021/01/24 05:25:10;;;;;;;9.98;6.50;;;3.90;99.90;;;3.32;90.43;99805.22;4120166;28;20042;-81
2021/01/24 05:27:12;;;;;;;10.68;7.22;;;4.00;99.90;;;3.39;91.88;99806.38;4136996;28;20057;-80
2021/01/24 05:29:24;;;;;;;9.77;6.10;;;4.10;99.90;;;3.37;92.07;99791.81;4107806;28;20051;-80
2021/01/24 05:31:25;;;;;;;10.27;6.72;;;4.10;99.90;;;3.45;91.89;99805.00;4120746;28;20117;-80
2021/01/24 05:33:26;;;;;;;8.88;6.68;;;4.10;99.90;;;3.37;92.05;99795.25;4106006;28;20118;-80
2021/01/24 05:35:28;;;;;;;10.55;6.80;;;4.10;99.90;;;3.46;91.07;99806.66;4115592;28;20058;-81
2021/01/24 05:37:37;;;;;;;12.68;6.60;;;4.20;99.90;;;3.34;92.12;99804.13;4136673;28;20030;-80
2021/01/24 05:39:43;;;;;;;10.40;6.55;;;4.20;99.90;;;3.50;92.21;99808.03;4114911;28;20047;-80
2021/01/24 05:41:54;;;;;;;8.50;6.60;;;4.20;99.90;;;3.54;92.50;99810.25;4113906;28;20027;-80
2021/01/24 05:43:54;;;;;;;8.35;5.70;;;4.30;99.90;;;3.77;93.05;99818.66;4104466;28;20511;-80
2021/01/24 05:45:55;;;;;;;9.60;6.60;;;4.30;99.90;;;3.72;92.56;99823.44;4136837;28;20029;-80
2021/01/24 05:47:59;;;;;;;7.00;5.28;;;4.40;99.90;;;3.88;91.69;99816.72;4104419;29;20042;-80
2021/01/24 05:50:01;;;;;;;8.52;5.10;;;4.40;99.90;;;3.74;92.20;99809.31;4120555;28;20077;-80
2021/01/24 05:52:07;;;;;;;8.07;4.85;;;4.40;99.90;;;3.59;92.83;99804.63;4127613;28;20513;-80
2021/01/24 05:54:08;;;;;;;7.65;5.53;;;4.40;99.90;;;3.69;92.96;99792.44;4100036;29;20470;-79
2021/01/24 05:56:15;;;;;;;9.63;6.20;;;4.40;99.90;;;3.74;92.20;99758.94;4112178;28;20037;-79
2021/01/24 05:58:28;;;;;;;6.32;5.20;;;4.40;99.90;;;3.65;92.67;99770.19;4117238;28;20032;-79
2021/01/24 06:00:29;;;;;;;6.80;5.50;;;4.40;99.90;;;3.59;93.91;99773.31;4120302;28;20101;-79
2021/01/24 06:02:30;;;;;;;5.57;5.07;;;4.40;99.90;;;3.59;93.87;99776.75;4113606;28;20109;-80
2021/01/24 06:04:31;;;;;;;8.05;5.70;;;4.40;99.90;;;3.44;94.18;99739.00;4120331;28;20023;-81
2021/01/24 06:06:32;;;;;;;7.85;5.90;;;4.40;99.90;;;3.58;94.54;99750.84;4104337;28;20035;-80
2021/01/24 06:08:33;;;;;;;6.97;5.60;;;4.40;99.90;;;3.54;94.31;99746.84;4104194;28;20039;-81
2021/01/24 06:10:35;;;;;;;6.50;4.70;;;4.40;99.90;;;3.64;94.03;99745.91;4120353;28;20502;-80
2021/01/24 06:12:39;;;;;;;8.63;4.65;;;4.40;99.90;;;3.54;95.64;99725.97;4113414;28;20026;-81
2021/01/24 06:14:41;;;;;;;5.55;4.28;;;4.40;99.90;;;3.73;95.13;99733.84;4120003;28;20085;-81
2021/01/24 06:16:49;;;;;;;8.25;4.55;;;4.50;99.90;;;3.84;94.11;99750.16;4104099;29;20035;-80
2021/01/24 06:19:02;;;;;;;6.40;4.68;;;4.60;99.90;;;3.97;94.94;99738.63;4112542;28;20059;-80
2021/01/24 06:21:05;;;;;;;9.07;6.15;;;4.60;99.90;;;4.01;93.87;99748.63;4104116;28;20023;-80
2021/01/24 06:23:55;;;;;;;7.88;4.95;;;4.70;99.90;;;3.96;94.25;99742.19;4087761;29;20054;-80
2021/01/24 06:26:13;;;;;;;9.57;5.03;;;4.70;99.90;;;3.93;93.17;99714.59;4053521;29;20037;-79
2021/01/24 06:28:20;;;;;;;7.65;5.88;;;4.70;99.90;;;3.96;94.10;99735.19;4071956;29;20128;-80
2021/01/24 06:30:25;;;;;;;7.43;4.70;;;4.70;99.90;;;4.08;94.69;99749.75;4070306;28;20125;-80
2021/01/24 06:32:29;;;;;;;7.55;5.40;;;4.70;99.90;;;4.10;94.05;99737.38;4107034;28;20499;-79
2021/01/24 06:34:40;;;;;;;;;;;4.70;99.90;;;4.28;92.43;99748.75;4107574;28;20031;-81
2021/01/24 06:37:21;;;;;;;6.32;4.40;;;4.80;99.90;;;4.10;93.35;99732.16;4119911;28;20321;-80
2021/01/24 06:39:32;;;;;;;7.40;4.30;;;4.80;99.90;;;3.79;93.34;99731.47;4100928;28;20614;-80
2021/01/24 06:41:45;;;;;;;9.63;4.50;;;4.70;99.90;;;3.84;94.70;99738.91;4119467;28;20031;-80
2021/01/24 06:43:48;;;;;;;9.00;4.40;;;4.60;99.90;;;3.96;93.73;99732.59;4107004;28;20065;-81
2021/01/24 06:45:49;;;;;;;5.97;4.28;;;4.70;99.90;;;3.94;94.39;99724.06;4103792;28;20027;-80
2021/01/24 06:47:50;;;;;;;6.45;4.47;;;4.70;99.90;;;4.18;94.72;99747.91;4103672;28;20029;-81
2021/01/24 06:49:52;;;;;;;7.60;4.00;;;4.70;99.90;;;4.10;94.40;99749.59;4119342;28;20170;-80
2021/01/24 06:52:18;;;;;;;6.32;4.07;;;4.80;99.90;;;4.07;94.85;99750.69;4108773;28;20050;-81
2021/01/24 06:54:28;;;;;;;6.70;4.18;;;4.80;99.90;;;4.07;94.64;99766.34;4119111;28;20130;-80
2021/01/24 06:56:47;;;;;;;5.47;3.53;;;4.80;99.90;;;4.37;94.51;99810.56;4109102;28;20063;-81
2021/01/24 06:58:50;;;;;;;4.72;4.22;;;5.00;99.90;;;4.20;94.92;99797.38;4119252;28;20054;-80
2021/01/24 07:00:53;;;;;;;6.65;3.28;;;5.10;99.90;;;4.04;96.67;99791.88;4103502;28;20031;-80
2021/01/24 07:02:54;;;;;;;3.05;2.55;;;5.10;99.90;;;4.24;96.49;99781.28;4103346;28;20024;-80
2021/01/24 07:05:16;;;;;;;3.80;3.45;;;5.10;99.90;;;4.28;96.23;99780.06;4103140;28;20043;-80
2021/01/24 07:07:16;;;;;;;4.22;2.45;;;5.10;99.90;;;4.42;96.47;99782.22;4113651;28;20030;-80
2021/01/24 07:09:27;;;;;;;5.35;3.17;;;5.10;99.90;;;4.33;97.26;99783.06;4104218;28;20031;-80
2021/01/24 07:11:56;;;;;;;2.65;2.40;;;5.10;99.90;;;4.43;97.63;99781.28;4104355;28;20023;-80
2021/01/24 07:13:57;;;;;;;6.68;2.83;;;5.20;99.90;;;4.43;97.30;99778.66;4104477;28;20037;-80
2021/01/24 07:16:06;;;;;;;3.63;2.25;;;5.20;99.90;;;4.47;97.15;99760.94;4103349;28;20035;-80
2021/01/24 07:18:07;;;;;;;2.78;2.22;;;5.30;99.90;;;4.58;96.15;99775.59;4104165;28;20031;-79
2021/01/24 07:20:08;;;;;;;4.35;2.15;;;5.40;99.90;;;4.49;96.57;99761.63;4103255;28;20063;-79
2021/01/24 07:22:11;;;;;;;6.63;2.63;;;5.40;99.90;;;4.59;96.72;99766.81;4102922;28;20035;-80
2021/01/24 07:24:12;;;;;;;4.35;3.15;;;5.40;99.90;;;4.58;97.06;99767.78;4102835;28;20027;-80
2021/01/24 07:26:13;;;;;;;5.35;2.38;;;5.40;99.90;;;4.61;97.41;99757.03;4118029;28;20027;-80
2021/01/24 07:28:18;;;;;;;4.00;2.60;;;5.40;99.90;;;4.66;97.17;99762.69;4114868;28;20063;-80
2021/01/24 07:30:23;;;;;;;;;;;5.40;99.90;;;4.69;96.40;99767.63;4103427;28;20031;-80
2021/01/24 07:32:26;;;;;;;3.55;3.22;;;5.40;99.90;;;4.52;95.49;99763.13;4103072;28;19962;-80
2021/01/24 07:34:26;;;;;;;4.10;2.95;;;5.30;99.90;;;4.66;95.72;99766.09;4107489;28;20043;-80
2021/01/24 07:36:28;;;;;;;3.00;2.42;;;5.30;99.90;;;4.62;96.76;99771.75;4119079;28;20033;-80
2021/01/24 07:38:29;;;;;;;3.63;3.08;;;5.20;99.90;;;4.69;96.29;99772.84;4118367;28;20085;-80
2021/01/24 07:40:31;;;;;;;3.50;2.78;;;5.20;99.90;;;4.60;96.37;99766.66;4118731;28;20509;-80
2021/01/24 07:42:32;;;;;;;2.72;2.45;;;5.20;99.90;;;4.62;96.65;99766.53;4118810;28;20058;-80
2021/01/24 07:44:33;;;;;;;3.58;2.30;;;5.20;99.90;;;4.64;95.77;99769.81;4118713;28;20030;-80
2021/01/24 07:46:34;;;;;;;5.20;3.47;;;5.20;99.90;;;4.63;95.92;99765.59;4108444;28;20023;-80
2021/01/24 07:48:35;;;;;;;2.70;2.38;;;5.20;99.90;;;4.61;95.98;99763.09;4102749;28;20043;-81
2021/01/24 07:50:37;;;;;;;3.65;2.25;;;5.20;99.90;;;4.77;95.91;99771.16;4102650;28;20077;-80
2021/01/24 07:52:38;;;;;;;7.57;4.40;;;5.30;99.90;;;4.70;96.04;99779.69;4128378;28;20038;-80
2021/01/24 07:54:40;;;;;;;6.10;5.07;;;5.30;99.90;;;4.82;95.62;99774.16;4118118;28;20094;-80
2021/01/24 07:56:43;;;;;;;6.22;4.30;;;5.40;99.90;;;4.71;94.48;99756.06;4118269;28;20034;-80
2021/01/24 07:58:46;;;;;;;6.85;3.53;;;5.40;99.90;;;4.81;95.33;99766.44;4118569;28;20487;-80
2021/01/24 08:00:47;;;;;;;7.15;3.97;;;5.40;99.90;;;4.70;95.76;99769.25;4118472;28;20027;-81
2021/01/24 08:02:48;;;;;;;3.67;3.38;;;5.40;99.90;;;4.74;95.23;99770.63;4134514;28;20022;-80
2021/01/24 08:04:50;;;;;;;5.43;3.55;;;5.40;99.90;;;4.76;95.09;99748.63;4118429;28;20031;-81
2021/01/24 08:06:52;;;;;;;6.07;2.30;;;5.40;99.90;;;4.90;94.47;99762.97;4134519;28;20473;-80
2021/01/24 08:08:53;;;;;;;2.45;2.25;;;5.40;99.90;;;4.79;94.95;99747.50;4118184;28;20094;-80
2021/01/24 08:10:57;;;;;;;4.15;2.30;;;5.40;99.90;;;4.89;94.99;99759.56;4118187;28;20035;-80
2021/01/24 08:12:59;;;;;;;2.30;1.77;;;5.40;99.90;;;4.85;93.98;99749.53;4105100;28;20035;-80
2021/01/24 08:15:00;;;;;;;3.33;2.40;;;5.50;99.90;;;4.81;94.79;99762.06;4118331;28;20074;-80
2021/01/24 08:17:02;;;;;;;2.92;2.05;;;5.50;99.90;;;4.86;94.33;99756.41;4102076;28;20036;-81
2021/01/24 08:19:05;;;;;;;2.95;1.83;;;5.50;99.90;;;4.89;94.12;99758.75;4102202;28;20031;-80
2021/01/24 08:21:08;;;;;;;3.05;1.85;;;5.50;99.90;;;4.89;94.83;99759.56;4118032;28;20159;-80
2021/01/24 08:23:09;;;;;;;3.80;2.25;;;5.50;99.90;;;4.99;95.48;99772.56;4102084;28;20035;-80
2021/01/24 08:25:10;;;;;;;2.45;1.60;;;5.60;99.90;;;5.02;94.94;99761.84;4093099;29;20078;-81
2021/01/24 08:27:12;;;;;;;1.80;1.70;;;5.60;99.90;;;5.14;94.68;99744.19;4134210;28;20018;-80
2021/01/24 08:29:15;;;;;;;2.50;1.88;;;5.70;99.90;;;5.20;94.07;99736.56;4117949;28;20037;-81
2021/01/24 08:31:20;;;;;;;4.20;2.05;;;5.80;99.90;;;5.14;94.23;99746.81;4114111;28;20466;-80
2021/01/24 08:33:22;;;;;;;2.25;1.70;;;5.80;99.90;;;5.22;94.27;99745.09;4102037;28;20091;-81
2021/01/24 08:35:23;;;;;;;3.40;1.83;;;5.90;99.90;;;5.25;93.58;99770.13;4118228;28;20398;-80
2021/01/24 08:37:25;;;;;;;5.18;1.80;;;6.00;99.90;;;5.14;94.16;99778.97;4102014;28;20027;-81
2021/01/24 08:39:27;;;;;;;3.42;1.95;;;5.90;99.90;;;5.19;94.28;99755.03;4105735;28;20117;-80
2021/01/24 08:41:34;;;;;;;3.83;2.33;;;5.90;99.90;;;5.07;93.97;99764.84;4134158;28;20065;-78
2021/01/24 08:43:35;;;;;;;5.45;2.05;;;5.90;99.90;;;5.17;94.43;99760.38;4106849;28;20027;-78
2021/01/24 08:45:36;;;;;;;5.40;2.90;;;5.90;99.90;;;5.32;93.94;99766.78;4132622;28;20022;-77
2021/01/24 08:47:37;;;;;;;7.97;3.95;;;6.00;99.90;;;5.28;94.30;99768.06;4116080;28;20033;-77